Rockport, ME

6:59 AM EDT on June 02, 2015 (GMT -0400)
Wayfarer Marine | | Change Station
CLOSE
Current Station
Personal Weather Station
Location: Camden, ME
Elevation: 15 ft
Nearby Weather Stations

Elev 15 ft 44.21 °N, 69.06 °W | Updated 9 minutes ago

Rain
Rain
45.9 °F
Feels Like 43 °F
N
5.0
Wind Variable Wind from NNE
Gusts 14.0 mph

Today
High -- | Low -- °F
--% Chance of Precip.
Yesterday
High -- | Low -- °F
Precip. -- in
4:55 AM 8:13 PM
Full, 100% visible
Pressure 30.23 in
Visibility 8.0 miles
Clouds Scattered Clouds 800 ft
Overcast 1600 ft
Windchill 43 °F
Dew Point 45 °F
Humidity 95%
Rainfall 0.31 in
Snow Depth Not available.
UV 0 out of 12
Pollen 4.60 out of 12
Air Quality Not available.
Flu Activity Regional
METAR KRKD 021055Z AUTO 04009KT 8SM SCT008 OVC016 07/06 A3023 RMK AO1 P0008

More Conditions Fewer Conditions

Pressure 30.23 in
Visibility 8.0 miles
Clouds Scattered Clouds 800 ft
Overcast 1600 ft
Windchill 43 °F
Dew Point 45 °F
Humidity 95%
Rainfall 0.31 in
Snow Depth Not available.
UV 0 out of 12
Pollen 4.60 out of 12
Air Quality Not available.
Flu Activity Regional
METAR KRKD 021055Z AUTO 04009KT 8SM SCT008 OVC016 07/06 A3023 RMK AO1 P0008

More Conditions Fewer Conditions

10-Day Weather Forecast

Almanac

Astronomy

Jun. 02, 2015 Rise Set
Actual Time
Civil Twilight
Nautical Twilight
Astronomical Twilight
Moon
Length of Visible Light
Length of Day
Tomorrow will be .
, % of the Moon is Illuminated

Today's Extremes

State Highs State Lows

Community

WunderPhotos

Upload Photos

1,825,902 photos uploaded!

WunderBlogs® & News

Nearby

Air Quality

  Air Quality AQ Index Pollutant
Not available.

Snow Depth

Station Depth Elevation

Earthquake Activity

City Distance Mag. Time & Date
Minimum magnitude displayed is 2.5.

Coastal Water Temperatures

Place Temperature

Stations

Nearby Weather Stations

Station Location Temp. Windchill Dew Point Humidity Wind Precip. Elev Updated Type